Date,TemperatureHighF,TemperatureAvgF,TemperatureLowF,DewpointHighF,DewpointAvgF,DewpointLowF,HumidityHigh,HumidityAvg,HumidityLow,PressureMaxIn,PressureMinIn,WindSpeedMaxMPH,WindSpeedAvgMPH,GustSpeedMaxMPH,PrecipitationSumIn
2013-1-1,38.0,31.4,20.0,26.9,18.6,7.2,75,59,45,29.92,29.74,13,2,19,0.02
2013-1-2,31.0,20.4,10.0,14.5,8.6,2.5,83,60,45,30.09,29.89,9,1,16,0.00
2013-1-3,26.0,15.3,4.0,13.6,1.2,-16.4,84,55,31,30.13,30.00,5,0,12,0.00
2013-1-4,38.0,20.3,12.0,23.2,12.7,6.5,100,75,39,30.00,29.86,13,2,16,0.03
2013-1-8,47.0,36.9,26.0,33.0,26.9,21.9,97,69,47,30.37,30.26,20,3,21,0.01
2013-1-9,44.0,33.7,20.0,39.4,28.7,17.5,100,83,60,30.39,30.00,15,2,17,0.00
2013-1-10,48.0,40.0,31.0,30.0,23.7,19.7,66,53,36,30.52,30.06,21,2,23,0.00
2013-1-11,39.0,32.4,23.0,34.1,25.8,17.5,99,77,65,30.51,30.20,6,0,6,0.21
2013-1-12,44.0,40.4,37.0,43.0,38.5,34.3,100,93,90,30.22,30.11,6,1,6,0.07
2013-1-13,50.0,45.2,40.0,49.7,43.4,38.1,100,93,87,30.16,30.01,11,2,11,0.01
2013-1-14,62.0,51.0,39.0,56.7,43.6,29.3,98,78,48,30.25,29.89,12,2,13,0.02
2013-1-15,41.0,36.2,32.0,37.0,30.4,27.1,100,80,59,30.30,30.20,7,0,7,0.07
2013-1-16,35.0,32.6,32.0,33.0,29.5,25.9,100,88,72,30.24,29.78,7,0,7,0.10
2013-1-17,43.0,35.2,30.0,35.7,27.9,19.3,100,76,51,30.08,29.84,12,1,13,0.36
2013-1-18,31.0,22.8,14.0,20.2,5.1,-15.0,76,48,21,30.47,30.02,16,2,18,0.35
2013-1-19,47.0,37.7,14.0,33.7,26.9,6.0,87,66,42,30.41,29.91,30,5,30,0.00
2013-1-20,54.0,43.0,28.0,34.6,26.9,9.3,74,54,34,29.94,29.57,22,5,29,0.00
2013-1-21,29.0,25.2,19.0,21.0,11.5,4.2,86,57,37,30.11,29.78,11,0,14,0.00
2013-1-22,25.0,20.0,12.0,21.0,7.8,-4.5,100,62,32,30.08,29.75,17,1,17,0.02
2013-1-23,16.0,10.7,5.0,4.1,-4.4,-10.8,73,50,35,30.15,30.07,17,1,17,0.00
2013-1-24,21.0,10.8,1.0,1.6,-8.8,-33.5,69,43,8,30.23,30.05,18,1,18,0.00
2013-1-25,26.0,16.2,6.0,11.4,-4.0,-31.9,75,42,9,30.31,30.05,10,0,12,0.00
2013-1-26,27.0,16.9,7.0,14.1,4.1,-17.0,95,60,23,30.24,29.99,13,1,14,0.00
2013-1-27,32.0,19.7,11.0,9.3,2.4,-3.4,78,48,27,30.47,30.23,15,1,15,0.00
2013-1-28,32.0,23.0,12.0,27.7,13.4,0.5,95,68,35,30.46,30.00,9,1,9,0.00
2013-1-29,35.0,31.4,28.0,32.9,29.2,25.7,100,91,90,30.19,29.99,5,0,5,0.21
2013-1-30,60.0,50.4,35.0,57.4,47.8,32.9,100,91,67,30.15,29.50,27,5,30,0.16
2013-1-31,63.0,50.6,33.0,59.0,38.1,4.2,92,65,29,29.62,29.02,40,7,41,0.65